Time;durP1;ratioP1;P1;durP2;ratioP2;P2;SDS_P1;SDS_P2;PMS_P1;PMS_P2;Temp;Humidity;BMP_temperature;BMP_pressure;BME280_temperature;BME280_humidity;BME280_pressure;Samples;Min_cycle;Max_cycle;Signal;HPM_P1;HPM_P2
2022/03/01 00:01:30;;;;;;;35.10;16.30;;;22.30;32.80;;;;;;6130950;28;83522;-64
2022/03/01 00:04:30;;;;;;;30.67;15.55;;;22.30;32.90;;;;;;6128948;28;82867;-66
2022/03/01 00:07:31;;;;;;;31.27;15.90;;;22.30;32.90;;;;;;6129322;28;84046;-65
2022/03/01 00:10:31;;;;;;;30.50;16.52;;;22.30;32.90;;;;;;6130691;28;82864;-64
2022/03/01 00:13:32;;;;;;;31.92;15.05;;;22.20;32.80;;;;;;6131796;28;83140;-66
2022/03/01 00:16:32;;;;;;;32.50;16.90;;;22.20;32.90;;;;;;6128281;28;83283;-65
2022/03/01 00:19:33;;;;;;;29.95;15.27;;;22.20;32.90;;;;;;6132531;28;82991;-64
2022/03/01 00:22:34;;;;;;;31.85;15.70;;;22.20;32.90;;;;;;6136551;28;84529;-64
2022/03/01 00:25:34;;;;;;;27.08;14.68;;;22.20;32.80;;;;;;6129664;28;84501;-67
2022/03/01 00:28:35;;;;;;;33.97;15.38;;;22.20;32.90;;;;;;6130764;28;83413;-66
2022/03/01 00:31:36;;;;;;;30.98;14.77;;;22.20;32.90;;;;;;6129854;28;83372;-67
2022/03/01 00:34:36;;;;;;;30.52;13.38;;;22.20;32.90;;;;;;6129059;28;83424;-66
2022/03/01 00:37:36;;;;;;;28.17;14.80;;;22.20;33.10;;;;;;6129208;28;83044;-64
2022/03/01 00:40:37;;;;;;;28.48;14.45;;;22.20;33.40;;;;;;6130126;28;83003;-66
2022/03/01 00:43:38;;;;;;;27.73;13.82;;;22.20;33.00;;;;;;6128157;28;83597;-66
2022/03/01 00:46:38;;;;;;;28.27;15.07;;;22.20;33.20;;;;;;6127886;28;83234;-66
2022/03/01 00:49:39;;;;;;;27.05;14.77;;;22.20;33.30;;;;;;6128203;28;83088;-64
2022/03/01 00:52:39;;;;;;;29.15;14.77;;;22.20;33.10;;;;;;6128503;28;83619;-66
2022/03/01 00:55:40;;;;;;;25.95;13.85;;;22.20;33.40;;;;;;6135381;28;83303;-66
2022/03/01 00:58:40;;;;;;;26.55;13.63;;;22.20;33.30;;;;;;6130989;28;84570;-66
2022/03/01 01:01:41;;;;;;;24.75;13.85;;;22.20;33.20;;;;;;6134928;28;83032;-66
2022/03/01 01:04:41;;;;;;;29.05;14.00;;;22.20;33.30;;;;;;6124251;28;84068;-67
2022/03/01 01:07:42;;;;;;;25.35;13.02;;;22.20;33.20;;;;;;6118561;28;84790;-67
2022/03/01 01:10:42;;;;;;;25.70;13.20;;;22.20;33.50;;;;;;6129292;28;83029;-66
2022/03/01 01:13:43;;;;;;;27.98;14.18;;;22.20;33.20;;;;;;6128871;28;83340;-66
2022/03/01 01:16:43;;;;;;;27.73;13.43;;;22.20;33.00;;;;;;6128712;28;83328;-66
2022/03/01 01:19:44;;;;;;;27.58;13.85;;;22.20;33.10;;;;;;6128609;28;83158;-64
2022/03/01 01:22:44;;;;;;;28.52;14.18;;;22.20;33.10;;;;;;6131205;28;90411;-64
2022/03/01 01:25:45;;;;;;;24.35;13.85;;;22.20;33.20;;;;;;6127900;28;84824;-65
2022/03/01 01:28:45;;;;;;;25.85;13.38;;;22.20;33.00;;;;;;6116949;28;86144;-64
2022/03/01 01:31:46;;;;;;;24.70;13.30;;;22.20;32.90;;;;;;6129457;28;83209;-65
2022/03/01 01:34:46;;;;;;;27.40;12.70;;;22.20;33.10;;;;;;6127507;28;83126;-66
2022/03/01 01:37:47;;;;;;;25.40;13.43;;;22.10;32.80;;;;;;6138968;28;83361;-62
2022/03/01 01:40:47;;;;;;;26.48;14.30;;;22.10;32.90;;;;;;6131200;28;84284;-63
2022/03/01 01:43:48;;;;;;;23.70;12.27;;;22.10;33.60;;;;;;6140295;28;83116;-63
2022/03/01 01:46:48;;;;;;;26.00;12.82;;;22.10;34.60;;;;;;6128505;28;84270;-63
2022/03/01 01:49:49;;;;;;;28.63;13.43;;;22.20;35.40;;;;;;6127621;28;82697;-63
2022/03/01 01:52:49;;;;;;;20.98;11.43;;;22.20;35.20;;;;;;6127208;28;89830;-63
2022/03/01 01:55:50;;;;;;;21.48;11.75;;;22.20;35.40;;;;;;6131499;28;83307;-63
2022/03/01 01:58:50;;;;;;;21.80;11.25;;;22.20;35.40;;;;;;6132539;28;83159;-63
2022/03/01 02:01:51;;;;;;;18.65;10.48;;;22.20;35.40;;;;;;6126107;28;83073;-63
2022/03/01 02:04:51;;;;;;;22.42;11.63;;;22.10;35.40;;;;;;6127705;28;83363;-63
2022/03/01 02:07:52;;;;;;;22.88;11.57;;;22.10;35.40;;;;;;6147709;28;84116;-63
2022/03/01 02:10:52;;;;;;;21.52;12.13;;;22.10;35.40;;;;;;6132997;28;84300;-62
2022/03/01 02:13:53;;;;;;;21.25;11.27;;;22.10;35.40;;;;;;6132409;28;82832;-63
2022/03/01 02:16:53;;;;;;;20.58;11.07;;;22.10;35.40;;;;;;6131757;28;82972;-62
2022/03/01 02:19:54;;;;;;;19.17;11.00;;;22.10;35.50;;;;;;6136564;28;83441;-62
2022/03/01 02:22:54;;;;;;;19.52;11.00;;;22.10;35.40;;;;;;6131992;28;85348;-62
2022/03/01 02:25:55;;;;;;;21.02;11.82;;;22.10;35.40;;;;;;6133225;28;82747;-61
2022/03/01 02:28:55;;;;;;;23.52;11.70;;;22.10;35.30;;;;;;6132517;28;83085;-62
2022/03/01 02:31:56;;;;;;;20.10;10.85;;;22.10;35.20;;;;;;6133264;28;83496;-62
2022/03/01 02:34:56;;;;;;;17.40;10.40;;;22.10;35.50;;;;;;6131692;28;83336;-62
2022/03/01 02:37:57;;;;;;;21.30;11.48;;;22.10;35.30;;;;;;6133889;28;84553;-62
2022/03/01 02:40:57;;;;;;;20.45;11.02;;;22.10;35.30;;;;;;6130605;28;83742;-61
2022/03/01 02:43:58;;;;;;;19.50;10.88;;;22.10;35.50;;;;;;6132030;28;83210;-62
2022/03/01 02:46:58;;;;;;;23.05;11.35;;;22.10;35.30;;;;;;6131474;28;83911;-61
2022/03/01 02:49:59;;;;;;;20.63;11.20;;;22.10;35.20;;;;;;6132150;28;84474;-61
2022/03/01 02:53:00;;;;;;;19.63;10.88;;;22.10;35.30;;;;;;6131134;28;83152;-62
2022/03/01 02:56:00;;;;;;;22.67;11.25;;;22.10;35.30;;;;;;6138468;28;85781;-62
2022/03/01 02:59:01;;;;;;;21.50;11.52;;;22.10;35.30;;;;;;6131378;28;83334;-62
2022/03/01 03:02:02;;;;;;;21.65;11.27;;;22.10;35.10;;;;;;6133044;28;83869;-62
2022/03/01 03:05:02;;;;;;;20.65;11.02;;;22.10;35.20;;;;;;6131028;28;83049;-63
2022/03/01 03:08:03;;;;;;;22.35;11.65;;;22.10;35.10;;;;;;6132004;28;85222;-62
2022/03/01 03:11:03;;;;;;;18.90;10.75;;;22.10;35.00;;;;;;6132121;28;83209;-63
2022/03/01 03:14:03;;;;;;;20.23;10.40;;;22.10;35.00;;;;;;6130614;28;83413;-62
2022/03/01 03:17:04;;;;;;;19.52;10.32;;;22.10;35.00;;;;;;6131330;28;83550;-62
2022/03/01 03:20:05;;;;;;;21.17;11.27;;;22.00;35.00;;;;;;6129974;28;83900;-64
2022/03/01 03:23:05;;;;;;;25.48;11.75;;;22.00;35.20;;;;;;6134276;28;83598;-64
2022/03/01 03:26:06;;;;;;;27.20;12.50;;;22.00;35.20;;;;;;6127965;28;84460;-64
2022/03/01 03:29:09;;;;;;;21.30;10.77;;;22.00;35.10;;;;;;6131652;28;83117;-64
2022/03/01 03:32:10;;;;;;;22.48;11.40;;;22.00;35.10;;;;;;6129388;28;83648;-64
2022/03/01 03:35:10;;;;;;;20.63;10.35;;;22.00;35.00;;;;;;6130542;28;83171;-64
2022/03/01 03:38:11;;;;;;;20.92;11.02;;;22.00;35.00;;;;;;6130486;28;84510;-64
2022/03/01 03:41:11;;;;;;;19.90;10.70;;;22.00;34.90;;;;;;6130747;28;83102;-65
2022/03/01 03:44:12;;;;;;;21.75;10.52;;;22.00;35.20;;;;;;6129872;28;83003;-63
2022/03/01 03:47:13;;;;;;;21.25;11.52;;;22.00;35.20;;;;;;6131846;28;85406;-67
2022/03/01 03:50:13;;;;;;;20.50;11.05;;;22.00;34.90;;;;;;6128869;28;83080;-64
2022/03/01 03:53:14;;;;;;;23.33;11.07;;;22.00;34.90;;;;;;6127954;28;83016;-64
2022/03/01 03:56:14;;;;;;;21.75;11.50;;;22.00;34.90;;;;;;6128281;28;85888;-64
2022/03/01 03:59:15;;;;;;;21.02;11.07;;;22.00;34.80;;;;;;6130727;28;83278;-64
2022/03/01 04:02:15;;;;;;;17.17;9.88;;;22.00;35.00;;;;;;6130000;28;83098;-64
2022/03/01 04:05:16;;;;;;;20.55;11.00;;;21.90;35.00;;;;;;6132847;28;83362;-64
2022/03/01 04:08:16;;;;;;;17.98;10.55;;;22.00;35.00;;;;;;6138781;28;83148;-65
2022/03/01 04:11:17;;;;;;;19.17;10.05;;;22.00;34.90;;;;;;6128410;28;83336;-64
2022/03/01 04:14:17;;;;;;;17.67;9.65;;;22.00;35.40;;;;;;6130250;28;83308;-64
2022/03/01 04:17:18;;;;;;;19.50;10.38;;;22.00;35.40;;;;;;6133715;28;84686;-63
2022/03/01 04:20:21;;;;;;;21.52;10.13;;;22.00;34.90;;;;;;6129259;28;83000;-63
2022/03/01 04:23:22;;;;;;;21.67;10.95;;;22.10;34.30;;;;;;6129038;28;88794;-64
2022/03/01 04:26:23;;;;;;;20.08;11.18;;;22.10;34.10;;;;;;6132565;28;83546;-64
2022/03/01 04:29:24;;;;;;;20.70;10.55;;;22.10;33.80;;;;;;6135067;28;83127;-63
2022/03/01 04:32:25;;;;;;;18.48;10.00;;;22.20;33.60;;;;;;6138140;28;84232;-63
2022/03/01 04:35:27;;;;;;;21.98;11.38;;;22.30;33.50;;;;;;6130141;28;83124;-64
2022/03/01 04:38:28;;;;;;;20.50;11.10;;;22.30;33.30;;;;;;6128209;28;85524;-63
2022/03/01 04:41:28;;;;;;;23.85;11.20;;;22.30;33.10;;;;;;6128775;28;84187;-63
2022/03/01 04:44:29;;;;;;;22.00;11.43;;;22.40;33.10;;;;;;6146750;28;83244;-63
2022/03/01 04:47:30;;;;;;;23.65;12.55;;;22.30;33.00;;;;;;6117052;28;84241;-61
2022/03/01 04:50:30;;;;;;;20.88;11.75;;;22.40;32.80;;;;;;6124704;28;83837;-62
2022/03/01 04:53:31;;;;;;;18.25;11.35;;;22.40;32.80;;;;;;6129548;28;83399;-62
2022/03/01 04:56:31;;;;;;;19.90;11.70;;;22.40;32.70;;;;;;6130350;28;83108;-63
2022/03/01 04:59:32;;;;;;;24.42;12.23;;;22.50;32.50;;;;;;6129997;28;85778;-62
2022/03/01 05:02:32;;;;;;;23.52;12.90;;;22.50;32.70;;;;;;6122516;28;84081;-61
2022/03/01 05:05:33;;;;;;;22.63;12.68;;;22.50;32.40;;;;;;6125672;28;83647;-61
2022/03/01 05:08:33;;;;;;;21.15;11.27;;;22.50;32.40;;;;;;6123774;28;86369;-62
2022/03/01 05:11:35;;;;;;;23.17;12.15;;;22.60;32.40;;;;;;6122867;28;84532;-61
2022/03/01 05:14:36;;;;;;;22.52;11.82;;;22.60;32.40;;;;;;6126090;28;84492;-62
2022/03/01 05:17:36;;;;;;;25.80;12.20;;;22.60;32.40;;;;;;6118536;28;83277;-61
2022/03/01 05:20:37;;;;;;;25.48;12.63;;;22.60;32.40;;;;;;6122227;28;84536;-60
2022/03/01 05:23:37;;;;;;;25.25;13.52;;;22.60;32.00;;;;;;6136818;28;83193;-60
2022/03/01 05:26:38;;;;;;;22.20;12.82;;;22.50;31.90;;;;;;6128039;28;83434;-61
2022/03/01 05:29:39;;;;;;;23.58;13.05;;;22.50;31.70;;;;;;6128335;28;82987;-60
2022/03/01 05:32:50;;;;;;;24.52;13.73;;;22.60;32.00;;;;;;6126770;28;83919;-62
2022/03/01 05:35:51;;;;;;;24.33;12.80;;;22.60;31.80;;;;;;6138677;28;84887;-60
2022/03/01 05:38:51;;;;;;;25.00;12.40;;;22.60;32.00;;;;;;6136412;28;83315;-62
2022/03/01 05:41:52;;;;;;;23.50;13.30;;;22.60;32.20;;;;;;6130711;28;84577;-62
2022/03/01 05:44:53;;;;;;;28.90;13.40;;;22.60;32.80;;;;;;6130775;28;83234;-62
2022/03/01 05:47:53;;;;;;;29.95;13.23;;;22.70;32.60;;;;;;6135761;28;83536;-61
2022/03/01 05:50:53;;;;;;;30.50;13.30;;;22.70;33.20;;;;;;6131453;28;83008;-62
2022/03/01 05:53:54;;;;;;;24.65;13.00;;;22.70;33.10;;;;;;6133707;28;83682;-62
2022/03/01 05:56:55;;;;;;;28.88;14.68;;;22.80;33.10;;;;;;6133953;28;83363;-64
2022/03/01 05:59:55;;;;;;;22.63;12.95;;;22.80;33.20;;;;;;6131727;28;83546;-62
2022/03/01 06:02:56;;;;;;;30.80;14.23;;;22.80;33.10;;;;;;6131750;28;84296;-62
2022/03/01 06:05:56;;;;;;;27.85;14.43;;;22.80;32.80;;;;;;6133464;28;83143;-63
2022/03/01 06:08:57;;;;;;;31.50;14.15;;;22.80;32.10;;;;;;6142588;28;83160;-60
2022/03/01 06:11:57;;;;;;;26.63;13.75;;;22.90;32.20;;;;;;6136251;28;82931;-62
2022/03/01 06:14:58;;;;;;;24.50;13.27;;;22.90;32.40;;;;;;6144124;28;83120;-61
2022/03/01 06:17:58;;;;;;;32.20;14.80;;;22.90;32.30;;;;;;6132254;28;84204;-62
2022/03/01 06:20:59;;;;;;;29.73;14.40;;;22.90;32.00;;;;;;6124310;28;83459;-61
2022/03/01 06:24:00;;;;;;;32.50;14.88;;;22.90;31.90;;;;;;6140766;28;83873;-63
2022/03/01 06:27:00;;;;;;;30.02;15.05;;;23.00;31.80;;;;;;6141385;28;83111;-63
2022/03/01 06:30:01;;;;;;;23.60;13.93;;;23.00;31.70;;;;;;6131104;28;83129;-60
2022/03/01 06:33:04;;;;;;;31.48;16.25;;;23.00;32.10;;;;;;6136987;28;83447;-62
2022/03/01 06:36:05;;;;;;;26.48;14.52;;;22.90;31.60;;;;;;6127929;28;83337;-63
2022/03/01 06:39:05;;;;;;;29.60;15.25;;;22.90;31.80;;;;;;6138747;28;84208;-63
2022/03/01 06:42:06;;;;;;;24.65;14.70;;;22.90;31.60;;;;;;6145060;28;83222;-62
2022/03/01 06:45:06;;;;;;;27.25;14.98;;;22.90;31.60;;;;;;6131535;28;84388;-62
2022/03/01 06:48:07;;;;;;;26.17;14.23;;;22.90;31.30;;;;;;6130111;28;83367;-64
2022/03/01 06:51:08;;;;;;;31.20;14.63;;;22.90;31.40;;;;;;6131641;28;83332;-64
2022/03/01 06:54:09;;;;;;;24.30;14.27;;;22.90;31.40;;;;;;6124234;28;84325;-64
2022/03/01 06:57:09;;;;;;;26.55;14.75;;;22.90;31.50;;;;;;6124049;28;83017;-65
2022/03/01 07:00:10;;;;;;;30.73;15.23;;;22.90;31.60;;;;;;6140193;28;83093;-63
2022/03/01 07:03:10;;;;;;;28.33;15.05;;;22.90;31.60;;;;;;6131964;28;86431;-63
2022/03/01 07:06:11;;;;;;;24.95;14.32;;;22.90;31.30;;;;;;6125780;28;83453;-63
2022/03/01 07:09:11;;;;;;;30.65;14.80;;;22.90;31.30;;;;;;6128127;28;85271;-64
2022/03/01 07:12:12;;;;;;;31.65;15.00;;;22.90;31.20;;;;;;6127538;28;84452;-63
2022/03/01 07:15:12;;;;;;;24.08;14.38;;;22.90;31.20;;;;;;6124787;28;83257;-62
2022/03/01 07:18:13;;;;;;;26.63;13.60;;;22.80;30.70;;;;;;6129445;28;84426;-62
2022/03/01 07:21:14;;;;;;;26.02;14.93;;;22.80;30.80;;;;;;6129535;28;83493;-63
2022/03/01 07:24:15;;;;;;;33.63;15.90;;;22.80;30.50;;;;;;6130309;28;83274;-62
2022/03/01 07:27:15;;;;;;;30.63;15.55;;;22.80;30.60;;;;;;6129881;28;84046;-62
2022/03/01 07:30:16;;;;;;;28.45;13.90;;;22.90;30.50;;;;;;6133824;28;84437;-63
2022/03/01 07:33:16;;;;;;;23.60;13.23;;;22.90;30.70;;;;;;6127003;28;84121;-62
2022/03/01 07:36:17;;;;;;;22.50;12.90;;;22.90;30.70;;;;;;6131542;28;84131;-63
2022/03/01 07:39:17;;;;;;;31.42;14.48;;;22.90;30.90;;;;;;6135019;28;84805;-63
2022/03/01 07:42:18;;;;;;;23.23;12.18;;;22.90;30.60;;;;;;6139673;28;82909;-62
2022/03/01 07:45:18;;;;;;;22.67;12.45;;;22.90;30.70;;;;;;6131173;28;83271;-62
2022/03/01 07:48:19;;;;;;;25.73;12.68;;;22.90;30.70;;;;;;6130543;28;83208;-62
2022/03/01 07:51:20;;;;;;;22.67;12.85;;;23.00;30.70;;;;;;6132012;28;84069;-61
2022/03/01 07:54:20;;;;;;;20.75;12.40;;;22.90;30.40;;;;;;6133253;28;82793;-63
2022/03/01 07:57:21;;;;;;;24.10;11.88;;;23.00;30.40;;;;;;6130661;28;83878;-63
2022/03/01 08:00:23;;;;;;;22.13;12.73;;;23.00;30.30;;;;;;6135895;28;86075;-62
2022/03/01 08:03:24;;;;;;;23.20;11.77;;;23.00;30.20;;;;;;6122548;28;83476;-62
2022/03/01 08:06:26;;;;;;;22.08;11.73;;;23.00;30.00;;;;;;6127988;28;84359;-63
2022/03/01 08:09:26;;;;;;;21.42;11.07;;;23.00;30.60;;;;;;6129051;28;83924;-64
2022/03/01 08:12:27;;;;;;;24.30;10.93;;;23.30;30.50;;;;;;6131157;28;83146;-66
2022/03/01 08:15:28;;;;;;;18.98;10.95;;;23.20;30.20;;;;;;6127099;28;83658;-64
2022/03/01 08:18:28;;;;;;;17.50;9.38;;;23.20;30.50;;;;;;6124215;28;83051;-63
2022/03/01 08:21:29;;;;;;;19.85;10.85;;;23.10;31.10;;;;;;6125935;28;83027;-64
2022/03/01 08:24:29;;;;;;;24.17;11.00;;;23.10;30.90;;;;;;6127176;28;83833;-64
2022/03/01 08:27:30;;;;;;;18.23;9.55;;;23.10;30.70;;;;;;6119318;28;83605;-64
2022/03/01 08:30:30;;;;;;;17.58;9.93;;;23.20;31.00;;;;;;6132308;28;82990;-64
2022/03/01 08:33:32;;;;;;;17.65;9.82;;;23.20;30.90;;;;;;6134349;28;80726;-63
2022/03/01 08:36:32;;;;;;;19.08;9.02;;;23.20;30.90;;;;;;6127114;28;80563;-63
2022/03/01 08:39:33;;;;;;;22.38;10.73;;;23.20;30.70;;;;;;6131594;28;80829;-63
2022/03/01 08:42:33;;;;;;;18.23;9.32;;;23.20;30.70;;;;;;6128440;28;83878;-64
2022/03/01 08:45:34;;;;;;;19.02;10.80;;;23.30;30.80;;;;;;6130034;28;82067;-64
2022/03/01 08:48:34;;;;;;;17.00;9.48;;;23.30;30.80;;;;;;6127247;28;83136;-63
2022/03/01 08:51:35;;;;;;;17.80;8.63;;;23.30;31.00;;;;;;6138991;28;81912;-64
2022/03/01 08:54:35;;;;;;;17.55;9.07;;;23.30;30.80;;;;;;6144696;28;80437;-63
2022/03/01 08:57:36;;;;;;;17.33;9.70;;;23.30;30.60;;;;;;6134222;28;82231;-62
2022/03/01 09:00:37;;;;;;;18.42;8.98;;;23.30;30.40;;;;;;6143461;28;81052;-62
2022/03/01 09:03:37;;;;;;;13.60;8.45;;;23.40;30.40;;;;;;6135020;28;84743;-63
2022/03/01 09:06:38;;;;;;;17.00;9.27;;;23.40;30.30;;;;;;6133967;28;80396;-63
2022/03/01 09:09:38;;;;;;;18.90;9.25;;;23.40;30.30;;;;;;6136772;28;80475;-63
2022/03/01 09:12:39;;;;;;;14.25;7.95;;;23.40;30.20;;;;;;6128513;28;80629;-65
2022/03/01 09:15:39;;;;;;;18.02;8.88;;;23.50;30.20;;;;;;6128393;28;80869;-63
2022/03/01 09:18:40;;;;;;;17.83;8.55;;;23.50;30.20;;;;;;6132500;28;81059;-64
2022/03/01 09:21:41;;;;;;;16.80;7.80;;;23.50;30.20;;;;;;6135312;28;80529;-62
2022/03/01 09:24:41;;;;;;;16.00;8.52;;;23.50;30.30;;;;;;6140937;28;82028;-62
2022/03/01 09:27:42;;;;;;;13.23;7.63;;;23.60;30.30;;;;;;6136208;28;83213;-64
2022/03/01 09:30:42;;;;;;;13.48;8.00;;;23.60;30.30;;;;;;6143369;28;80444;-63
2022/03/01 09:33:43;;;;;;;14.00;7.10;;;23.60;30.40;;;;;;6146103;28;83834;-63
2022/03/01 09:36:43;;;;;;;11.75;6.53;;;23.70;30.40;;;;;;6134537;28;80961;-62
2022/03/01 09:39:44;;;;;;;13.23;7.13;;;23.70;30.40;;;;;;6132722;28;83125;-62
2022/03/01 09:42:44;;;;;;;11.77;6.63;;;23.70;30.30;;;;;;6135178;28;80151;-62
2022/03/01 09:45:45;;;;;;;13.60;6.93;;;23.80;30.40;;;;;;6137140;28;83848;-62
2022/03/01 09:48:45;;;;;;;12.48;6.38;;;23.80;30.30;;;;;;6138541;28;81007;-62
2022/03/01 09:51:46;;;;;;;12.55;6.72;;;23.80;30.40;;;;;;6134211;28;81976;-63
2022/03/01 09:54:46;;;;;;;8.32;5.55;;;23.90;30.40;;;;;;6133488;28;82183;-63
2022/03/01 09:57:47;;;;;;;11.27;6.07;;;23.90;30.30;;;;;;6131308;28;80474;-62
2022/03/01 10:00:48;;;;;;;10.82;6.60;;;23.90;30.40;;;;;;6135334;28;81195;-63
2022/03/01 10:03:49;;;;;;;12.30;6.20;;;23.90;30.50;;;;;;6134461;28;80306;-63
2022/03/01 10:06:50;;;;;;;11.88;5.60;;;24.00;30.40;;;;;;6136531;28;81205;-65
2022/03/01 10:09:50;;;;;;;9.60;5.35;;;24.00;30.50;;;;;;6137063;28;81735;-66
2022/03/01 10:12:51;;;;;;;12.48;5.70;;;24.00;30.40;;;;;;6138551;28;80650;-64
2022/03/01 10:15:52;;;;;;;9.20;5.50;;;24.00;30.40;;;;;;6136053;28;80698;-64
2022/03/01 10:18:53;;;;;;;9.68;4.90;;;24.10;30.50;;;;;;6134356;28;80573;-63
2022/03/01 10:21:53;;;;;;;7.53;4.28;;;24.10;30.30;;;;;;6135093;28;83758;-65
2022/03/01 10:24:54;;;;;;;13.02;5.70;;;24.10;30.40;;;;;;6142791;28;80590;-64
2022/03/01 10:27:54;;;;;;;9.57;5.18;;;24.10;30.50;;;;;;6127038;28;80461;-64
2022/03/01 10:30:55;;;;;;;11.13;5.68;;;24.10;29.30;;;;;;6134683;28;80160;-64
2022/03/01 10:33:55;;;;;;;11.38;5.72;;;24.00;27.70;;;;;;6134280;28;82140;-64
2022/03/01 10:36:56;;;;;;;10.20;4.93;;;23.90;26.80;;;;;;6138079;28;80635;-64
2022/03/01 10:39:57;;;;;;;8.77;5.00;;;23.70;27.30;;;;;;6137867;28;80237;-64
2022/03/01 10:42:58;;;;;;;9.85;5.18;;;23.80;27.10;;;;;;6137429;28;81004;-63
2022/03/01 10:46:02;;;;;;;9.02;5.22;;;23.70;26.50;;;;;;6135724;28;80181;-64
2022/03/01 10:49:05;;;;;;;11.30;5.75;;;23.60;26.50;;;;;;6134091;28;81575;-64
2022/03/01 10:52:07;;;;;;;12.32;6.13;;;23.60;26.30;;;;;;6135183;28;80539;-64
2022/03/01 10:55:07;;;;;;;12.20;6.15;;;23.50;26.30;;;;;;6130474;28;80540;-64
2022/03/01 10:58:10;;;;;;;11.32;5.85;;;23.40;26.40;;;;;;6130840;28;83383;-64
2022/03/01 11:01:10;;;;;;;28.42;5.80;;;23.40;26.20;;;;;;6129693;28;81315;-65
2022/03/01 11:04:11;;;;;;;10.45;5.57;;;23.50;26.30;;;;;;6134065;28;80876;-64
2022/03/01 11:07:12;;;;;;;10.85;5.63;;;23.60;26.50;;;;;;6134300;28;80731;-65
2022/03/01 11:10:12;;;;;;;10.10;5.53;;;23.70;26.70;;;;;;6133886;28;80951;-64
2022/03/01 11:13:13;;;;;;;10.45;5.55;;;23.90;27.00;;;;;;6134968;28;80447;-64
2022/03/01 11:16:13;;;;;;;10.88;5.60;;;23.90;27.30;;;;;;6139505;28;81307;-64
2022/03/01 11:19:14;;;;;;;11.60;5.25;;;24.00;27.50;;;;;;6135231;28;81026;-64
2022/03/01 11:22:15;;;;;;;8.95;5.47;;;24.10;27.80;;;;;;6134144;28;88136;-64
2022/03/01 11:25:15;;;;;;;8.35;4.85;;;24.10;28.00;;;;;;6145131;28;80931;-63
2022/03/01 11:28:16;;;;;;;6.55;4.28;;;24.30;28.10;;;;;;6128353;28;80635;-63
2022/03/01 11:31:17;;;;;;;8.90;5.10;;;24.30;28.20;;;;;;6127563;28;81499;-64
2022/03/01 11:34:18;;;;;;;7.45;4.32;;;24.40;28.30;;;;;;6139764;28;81058;-64
2022/03/01 11:37:18;;;;;;;7.25;4.43;;;24.50;28.40;;;;;;6134845;28;80870;-64
2022/03/01 11:40:19;;;;;;;9.00;4.90;;;24.60;28.40;;;;;;6135679;28;81506;-65
2022/03/01 11:43:23;;;;;;;8.68;4.32;;;24.70;28.50;;;;;;6133030;28;81965;-65
2022/03/01 11:46:23;;;;;;;6.72;4.28;;;24.70;28.60;;;;;;6143743;28;81614;-65
2022/03/01 11:49:24;;;;;;;7.43;4.45;;;24.80;28.60;;;;;;6134731;28;81647;-64
2022/03/01 11:52:25;;;;;;;7.97;4.55;;;24.90;28.70;;;;;;6133394;28;81266;-64
2022/03/01 11:55:25;;;;;;;12.25;5.05;;;24.90;28.80;;;;;;6133686;28;81803;-64
2022/03/01 11:58:26;;;;;;;6.85;4.82;;;25.00;28.90;;;;;;6131631;28;80555;-64
2022/03/01 12:01:26;;;;;;;8.93;4.57;;;25.10;29.10;;;;;;6129507;28;80156;-64
2022/03/01 12:04:27;;;;;;;8.02;4.47;;;25.10;29.10;;;;;;6128134;28;80796;-66
2022/03/01 12:07:30;;;;;;;6.57;3.83;;;25.10;29.10;;;;;;6129259;28;80829;-66
2022/03/01 12:10:30;;;;;;;8.10;4.55;;;25.10;29.10;;;;;;6133437;28;80294;-66
2022/03/01 12:13:31;;;;;;;5.22;3.80;;;25.20;29.20;;;;;;6132247;28;81063;-65
2022/03/01 12:16:32;;;;;;;8.32;4.72;;;25.20;29.10;;;;;;6132667;28;81315;-65
2022/03/01 12:19:32;;;;;;;5.65;3.80;;;25.30;29.30;;;;;;6139084;28;82458;-64
2022/03/01 12:22:33;;;;;;;8.20;4.28;;;25.20;29.30;;;;;;6133598;28;80938;-63
2022/03/01 12:25:33;;;;;;;7.70;3.65;;;25.30;29.30;;;;;;6122456;28;80664;-66
2022/03/01 12:28:34;;;;;;;11.27;4.18;;;25.30;29.30;;;;;;6129857;28;80904;-65
2022/03/01 12:31:34;;;;;;;9.88;4.65;;;25.30;29.30;;;;;;6142608;28;80789;-65
2022/03/01 12:34:35;;;;;;;5.43;3.40;;;25.20;29.30;;;;;;6137284;28;80900;-64
2022/03/01 12:37:36;;;;;;;6.30;3.25;;;25.20;29.80;;;;;;6133702;28;81449;-63
2022/03/01 12:40:37;;;;;;;4.45;3.30;;;25.10;29.40;;;;;;6141633;28;80202;-64
2022/03/01 12:43:38;;;;;;;51.40;20.55;;;25.10;29.50;;;;;;6151326;28;81509;-63
2022/03/01 12:46:38;;;;;;;69.07;31.73;;;25.10;29.70;;;;;;6131920;28;82753;-62
2022/03/01 12:49:39;;;;;;;76.97;32.03;;;25.10;29.10;;;;;;6136115;28;84359;-64
2022/03/01 12:52:40;;;;;;;68.07;29.65;;;25.10;28.60;;;;;;6135043;28;82971;-64
2022/03/01 12:55:40;;;;;;;48.22;21.60;;;25.10;28.10;;;;;;6135844;28;83150;-61
2022/03/01 12:58:41;;;;;;;46.20;20.02;;;25.00;27.50;;;;;;6128500;28;83647;-61
2022/03/01 13:01:43;;;;;;;45.38;18.15;;;25.00;27.50;;;;;;6137762;28;82950;-62
2022/03/01 13:04:49;;;;;;;42.67;17.67;;;25.00;27.60;;;;;;6116976;28;83175;-63
2022/03/01 13:07:49;;;;;;;;;;;25.00;28.00;;;;;;6119931;28;83849;-62
2022/03/01 13:10:50;;;;;;;33.88;15.27;;;25.10;28.20;;;;;;6129562;28;82850;-61
2022/03/01 13:13:50;;;;;;;32.60;14.65;;;25.10;28.30;;;;;;6121578;28;83414;-62
2022/03/01 13:16:51;;;;;;;31.20;13.70;;;25.10;28.50;;;;;;6116564;28;83135;-61
2022/03/01 13:19:52;;;;;;;25.77;12.52;;;25.10;28.70;;;;;;6117899;28;83839;-62
2022/03/01 13:22:52;;;;;;;22.20;10.93;;;25.10;28.80;;;;;;6115272;28;85114;-63
2022/03/01 13:25:53;;;;;;;19.70;10.10;;;25.00;28.90;;;;;;6131424;28;83593;-64
2022/03/01 13:28:53;;;;;;;18.50;9.68;;;25.00;29.00;;;;;;6119669;28;83420;-63
2022/03/01 13:31:54;;;;;;;19.67;9.50;;;24.90;29.10;;;;;;6127922;28;84202;-62
2022/03/01 13:34:54;;;;;;;16.23;9.02;;;24.90;29.10;;;;;;6124101;28;83108;-62
2022/03/01 13:37:55;;;;;;;19.63;8.80;;;24.90;29.40;;;;;;6116666;28;80950;-63
2022/03/01 13:40:55;;;;;;;16.83;7.30;;;24.90;29.40;;;;;;6117717;28;81630;-64
2022/03/01 13:43:56;;;;;;;14.02;7.10;;;24.90;29.50;;;;;;6129053;28;80550;-63
2022/03/01 13:46:56;;;;;;;13.98;6.70;;;24.80;29.60;;;;;;6117851;28;80225;-64
2022/03/01 13:49:57;;;;;;;12.90;6.70;;;24.80;29.60;;;;;;6119176;28;80773;-65
2022/03/01 13:53:00;;;;;;;11.77;5.88;;;24.80;29.60;;;;;;6116781;28;81620;-64
2022/03/01 13:56:01;;;;;;;9.30;4.63;;;24.80;29.70;;;;;;6114207;28;81589;-63
2022/03/01 13:59:03;;;;;;;9.02;4.97;;;24.80;29.70;;;;;;6125073;28;84401;-63
2022/03/01 14:02:05;;;;;;;10.68;4.95;;;24.80;29.80;;;;;;6120255;28;80447;-64
2022/03/01 14:05:05;;;;;;;8.73;4.53;;;24.70;29.80;;;;;;6121379;28;80154;-64
2022/03/01 14:08:06;;;;;;;5.90;3.58;;;24.80;29.70;;;;;;6121206;28;80635;-63
2022/03/01 14:11:07;;;;;;;12.27;5.07;;;24.80;29.70;;;;;;6122660;28;83186;-64
2022/03/01 14:14:07;;;;;;;6.40;3.97;;;24.80;29.70;;;;;;6135967;28;81597;-65
2022/03/01 14:17:08;;;;;;;9.35;4.10;;;24.80;29.70;;;;;;6137165;28;81449;-64
2022/03/01 14:20:08;;;;;;;5.90;3.70;;;24.80;29.80;;;;;;6136078;28;81416;-64
2022/03/01 14:23:09;;;;;;;6.35;3.92;;;24.80;29.60;;;;;;6133814;28;81985;-63
2022/03/01 14:26:10;;;;;;;7.18;3.95;;;24.80;29.60;;;;;;6141645;28;81553;-65
2022/03/01 14:29:10;;;;;;;6.43;3.80;;;24.80;29.80;;;;;;6136516;28;81584;-62
2022/03/01 14:32:11;;;;;;;5.93;3.42;;;24.80;29.30;;;;;;6136238;28;80524;-62
2022/03/01 14:35:11;;;;;;;7.15;4.22;;;24.80;29.40;;;;;;6135165;28;81080;-61
2022/03/01 14:38:12;;;;;;;8.07;4.45;;;24.80;29.40;;;;;;6128761;28;81100;-62
2022/03/01 14:41:13;;;;;;;5.35;3.53;;;24.70;29.30;;;;;;6117844;28;80926;-62
2022/03/01 14:44:14;;;;;;;5.45;3.20;;;24.70;29.30;;;;;;6128434;28;80345;-62
2022/03/01 14:47:15;;;;;;;7.05;3.60;;;24.70;29.30;;;;;;6140612;28;80613;-62
2022/03/01 14:50:15;;;;;;;8.10;4.43;;;24.70;29.40;;;;;;6139737;28;80847;-63
2022/03/01 14:53:16;;;;;;;10.68;3.90;;;24.60;29.30;;;;;;6137122;28;81459;-61
2022/03/01 14:56:16;;;;;;;7.50;4.05;;;24.60;29.40;;;;;;6134461;28;81129;-61
2022/03/01 14:59:17;;;;;;;6.32;3.95;;;24.60;29.30;;;;;;6133975;28;81069;-61
2022/03/01 15:02:17;;;;;;;8.55;3.72;;;24.60;29.60;;;;;;6133914;28;81421;-62
2022/03/01 15:05:18;;;;;;;6.10;3.67;;;24.60;29.60;;;;;;6138097;28;80131;-62
2022/03/01 15:08:20;;;;;;;8.05;3.85;;;25.00;29.60;;;;;;6136460;28;81611;-66
2022/03/01 15:11:20;;;;;;;6.40;3.20;;;25.30;29.50;;;;;;6126645;28;84819;-62
2022/03/01 15:14:21;;;;;;;7.55;3.95;;;25.30;29.70;;;;;;6129346;28;81064;-62
2022/03/01 15:17:21;;;;;;;7.57;3.78;;;25.10;29.50;;;;;;6136621;28;80173;-62
2022/03/01 15:20:22;;;;;;;8.27;3.85;;;25.00;29.60;;;;;;6135217;28;80970;-61
2022/03/01 15:23:22;;;;;;;6.57;4.35;;;24.90;29.90;;;;;;6133594;28;81698;-61